sensor_id;sensor_type;location;lat;lon;timestamp;P1;durP1;ratioP1;P2;durP2;ratioP2
65543;SDS011;52173;45.204;39.240;2022-08-02T00:01:38;18.30;;;13.40;;
65543;SDS011;52173;45.204;39.240;2022-08-02T00:04:05;20.40;;;13.55;;
65543;SDS011;52173;45.204;39.240;2022-08-02T00:06:31;15.77;;;12.88;;
65543;SDS011;52173;45.204;39.240;2022-08-02T00:08:58;17.50;;;12.90;;
65543;SDS011;52173;45.204;39.240;2022-08-02T00:11:24;20.20;;;13.95;;
65543;SDS011;52173;45.204;39.240;2022-08-02T00:13:50;19.13;;;14.85;;
65543;SDS011;52173;45.204;39.240;2022-08-02T00:16:17;18.92;;;14.48;;
65543;SDS011;52173;45.204;39.240;2022-08-02T00:18:43;21.45;;;14.63;;
65543;SDS011;52173;45.204;39.240;2022-08-02T00:21:09;17.42;;;14.10;;
65543;SDS011;52173;45.204;39.240;2022-08-02T00:23:36;18.75;;;12.57;;
65543;SDS011;52173;45.204;39.240;2022-08-02T00:26:02;15.02;;;13.45;;
65543;SDS011;52173;45.204;39.240;2022-08-02T00:28:28;20.40;;;16.10;;
65543;SDS011;52173;45.204;39.240;2022-08-02T00:30:55;19.45;;;14.90;;
65543;SDS011;52173;45.204;39.240;2022-08-02T00:33:22;16.67;;;13.38;;
65543;SDS011;52173;45.204;39.240;2022-08-02T00:35:49;16.52;;;13.73;;
65543;SDS011;52173;45.204;39.240;2022-08-02T00:38:15;20.60;;;14.75;;
65543;SDS011;52173;45.204;39.240;2022-08-02T00:40:50;17.92;;;13.50;;
65543;SDS011;52173;45.204;39.240;2022-08-02T00:43:17;17.10;;;13.88;;
65543;SDS011;52173;45.204;39.240;2022-08-02T00:45:44;21.40;;;14.50;;
65543;SDS011;52173;45.204;39.240;2022-08-02T00:48:10;28.40;;;15.15;;
65543;SDS011;52173;45.204;39.240;2022-08-02T00:50:38;29.70;;;15.35;;
65543;SDS011;52173;45.204;39.240;2022-08-02T00:53:05;25.85;;;16.08;;
65543;SDS011;52173;45.204;39.240;2022-08-02T00:55:34;17.52;;;13.63;;
65543;SDS011;52173;45.204;39.240;2022-08-02T00:58:02;24.33;;;15.50;;
65543;SDS011;52173;45.204;39.240;2022-08-02T01:00:29;24.70;;;15.02;;
65543;SDS011;52173;45.204;39.240;2022-08-02T01:02:55;17.73;;;13.90;;
65543;SDS011;52173;45.204;39.240;2022-08-02T01:05:21;28.77;;;16.45;;
65543;SDS011;52173;45.204;39.240;2022-08-02T01:07:47;21.27;;;15.75;;
65543;SDS011;52173;45.204;39.240;2022-08-02T01:10:14;21.23;;;16.02;;
65543;SDS011;52173;45.204;39.240;2022-08-02T01:12:40;18.40;;;14.40;;
65543;SDS011;52173;45.204;39.240;2022-08-02T01:15:07;17.77;;;15.40;;
65543;SDS011;52173;45.204;39.240;2022-08-02T01:20:35;20.27;;;14.18;;
65543;SDS011;52173;45.204;39.240;2022-08-02T01:26:30;17.60;;;13.63;;
65543;SDS011;52173;45.204;39.240;2022-08-02T01:29:21;17.30;;;13.00;;
65543;SDS011;52173;45.204;39.240;2022-08-02T01:31:58;12.82;;;11.18;;
65543;SDS011;52173;45.204;39.240;2022-08-02T01:37:06;14.70;;;12.07;;
65543;SDS011;52173;45.204;39.240;2022-08-02T01:39:55;13.13;;;11.73;;
65543;SDS011;52173;45.204;39.240;2022-08-02T01:42:25;11.85;;;10.65;;
65543;SDS011;52173;45.204;39.240;2022-08-02T01:44:53;11.50;;;10.00;;
65543;SDS011;52173;45.204;39.240;2022-08-02T01:47:23;12.75;;;10.52;;
65543;SDS011;52173;45.204;39.240;2022-08-02T01:49:53;14.02;;;10.52;;
65543;SDS011;52173;45.204;39.240;2022-08-02T01:52:24;14.68;;;12.40;;
65543;SDS011;52173;45.204;39.240;2022-08-02T01:54:58;12.48;;;10.90;;
65543;SDS011;52173;45.204;39.240;2022-08-02T01:57:45;14.25;;;10.88;;
65543;SDS011;52173;45.204;39.240;2022-08-02T02:00:15;12.85;;;10.52;;
65543;SDS011;52173;45.204;39.240;2022-08-02T02:02:44;14.02;;;11.43;;
65543;SDS011;52173;45.204;39.240;2022-08-02T02:05:13;14.70;;;11.48;;
65543;SDS011;52173;45.204;39.240;2022-08-02T02:07:43;15.18;;;10.93;;
65543;SDS011;52173;45.204;39.240;2022-08-02T02:10:11;14.07;;;12.57;;
65543;SDS011;52173;45.204;39.240;2022-08-02T02:12:45;13.30;;;11.98;;
65543;SDS011;52173;45.204;39.240;2022-08-02T02:15:14;15.98;;;12.70;;
65543;SDS011;52173;45.204;39.240;2022-08-02T02:17:41;14.63;;;12.60;;
65543;SDS011;52173;45.204;39.240;2022-08-02T02:20:12;15.30;;;12.50;;
65543;SDS011;52173;45.204;39.240;2022-08-02T02:22:40;14.73;;;12.18;;
65543;SDS011;52173;45.204;39.240;2022-08-02T02:25:08;15.07;;;12.63;;
65543;SDS011;52173;45.204;39.240;2022-08-02T02:27:35;14.50;;;12.27;;
65543;SDS011;52173;45.204;39.240;2022-08-02T02:30:04;15.50;;;12.60;;
65543;SDS011;52173;45.204;39.240;2022-08-02T02:32:31;21.42;;;12.68;;
65543;SDS011;52173;45.204;39.240;2022-08-02T02:34:59;14.25;;;12.77;;
65543;SDS011;52173;45.204;39.240;2022-08-02T02:37:28;12.88;;;11.52;;
65543;SDS011;52173;45.204;39.240;2022-08-02T02:39:56;13.65;;;11.07;;
65543;SDS011;52173;45.204;39.240;2022-08-02T02:42:29;14.43;;;11.88;;
65543;SDS011;52173;45.204;39.240;2022-08-02T02:44:57;15.13;;;12.68;;
65543;SDS011;52173;45.204;39.240;2022-08-02T02:47:26;15.45;;;13.63;;
65543;SDS011;52173;45.204;39.240;2022-08-02T02:49:54;14.77;;;13.27;;
65543;SDS011;52173;45.204;39.240;2022-08-02T02:52:22;14.23;;;12.82;;
65543;SDS011;52173;45.204;39.240;2022-08-02T02:54:49;14.68;;;13.13;;
65543;SDS011;52173;45.204;39.240;2022-08-02T02:57:16;15.70;;;14.00;;
65543;SDS011;52173;45.204;39.240;2022-08-02T02:59:44;15.77;;;14.18;;
65543;SDS011;52173;45.204;39.240;2022-08-02T03:02:12;16.05;;;14.45;;
65543;SDS011;52173;45.204;39.240;2022-08-02T03:04:41;15.88;;;12.48;;
65543;SDS011;52173;45.204;39.240;2022-08-02T03:07:09;14.73;;;13.13;;
65543;SDS011;52173;45.204;39.240;2022-08-02T03:09:35;17.15;;;13.77;;
65543;SDS011;52173;45.204;39.240;2022-08-02T03:12:02;15.63;;;13.55;;
65543;SDS011;52173;45.204;39.240;2022-08-02T03:14:28;14.57;;;13.07;;
65543;SDS011;52173;45.204;39.240;2022-08-02T03:16:55;16.65;;;12.30;;
65543;SDS011;52173;45.204;39.240;2022-08-02T03:19:22;15.15;;;12.35;;
65543;SDS011;52173;45.204;39.240;2022-08-02T03:21:49;14.98;;;12.82;;
65543;SDS011;52173;45.204;39.240;2022-08-02T03:24:16;13.88;;;11.68;;
65543;SDS011;52173;45.204;39.240;2022-08-02T03:26:42;15.52;;;11.75;;
65543;SDS011;52173;45.204;39.240;2022-08-02T03:29:09;14.95;;;12.55;;
65543;SDS011;52173;45.204;39.240;2022-08-02T03:31:35;15.10;;;11.63;;
65543;SDS011;52173;45.204;39.240;2022-08-02T03:34:03;16.70;;;12.43;;
65543;SDS011;52173;45.204;39.240;2022-08-02T03:36:30;16.92;;;12.95;;
65543;SDS011;52173;45.204;39.240;2022-08-02T03:38:59;13.57;;;11.23;;
65543;SDS011;52173;45.204;39.240;2022-08-02T03:41:27;12.50;;;11.02;;
65543;SDS011;52173;45.204;39.240;2022-08-02T03:43:54;16.85;;;12.82;;
65543;SDS011;52173;45.204;39.240;2022-08-02T03:46:22;15.63;;;12.02;;
65543;SDS011;52173;45.204;39.240;2022-08-02T03:48:50;14.90;;;12.02;;
65543;SDS011;52173;45.204;39.240;2022-08-02T03:51:17;12.52;;;11.18;;
65543;SDS011;52173;45.204;39.240;2022-08-02T03:53:45;12.98;;;10.43;;
65543;SDS011;52173;45.204;39.240;2022-08-02T03:56:13;11.98;;;10.75;;
65543;SDS011;52173;45.204;39.240;2022-08-02T03:58:40;10.60;;;9.20;;
65543;SDS011;52173;45.204;39.240;2022-08-02T04:01:06;11.82;;;10.35;;
65543;SDS011;52173;45.204;39.240;2022-08-02T04:03:33;10.15;;;8.93;;
65543;SDS011;52173;45.204;39.240;2022-08-02T04:05:59;10.32;;;8.27;;
65543;SDS011;52173;45.204;39.240;2022-08-02T04:08:25;9.75;;;8.15;;
65543;SDS011;52173;45.204;39.240;2022-08-02T04:10:52;9.52;;;7.70;;
65543;SDS011;52173;45.204;39.240;2022-08-02T04:13:37;7.88;;;7.05;;
65543;SDS011;52173;45.204;39.240;2022-08-02T04:16:05;10.02;;;7.20;;
65543;SDS011;52173;45.204;39.240;2022-08-02T04:18:38;6.72;;;6.03;;
65543;SDS011;52173;45.204;39.240;2022-08-02T04:21:08;4.85;;;4.03;;
65543;SDS011;52173;45.204;39.240;2022-08-02T04:23:39;8.80;;;5.78;;
65543;SDS011;52173;45.204;39.240;2022-08-02T04:26:08;7.47;;;6.18;;
65543;SDS011;52173;45.204;39.240;2022-08-02T04:28:35;6.93;;;5.63;;
65543;SDS011;52173;45.204;39.240;2022-08-02T04:31:02;7.57;;;5.80;;
65543;SDS011;52173;45.204;39.240;2022-08-02T04:33:30;7.25;;;5.50;;
65543;SDS011;52173;45.204;39.240;2022-08-02T04:35:57;6.82;;;5.80;;
65543;SDS011;52173;45.204;39.240;2022-08-02T04:38:23;9.57;;;5.57;;
65543;SDS011;52173;45.204;39.240;2022-08-02T04:40:51;7.70;;;4.60;;
65543;SDS011;52173;45.204;39.240;2022-08-02T04:43:19;6.53;;;5.13;;
65543;SDS011;52173;45.204;39.240;2022-08-02T04:45:53;5.28;;;4.20;;
65543;SDS011;52173;45.204;39.240;2022-08-02T04:48:20;5.88;;;4.20;;
65543;SDS011;52173;45.204;39.240;2022-08-02T04:50:47;7.25;;;4.60;;
65543;SDS011;52173;45.204;39.240;2022-08-02T04:53:14;7.55;;;4.60;;
65543;SDS011;52173;45.204;39.240;2022-08-02T04:55:41;6.72;;;4.57;;
65543;SDS011;52173;45.204;39.240;2022-08-02T04:58:08;7.28;;;4.70;;
65543;SDS011;52173;45.204;39.240;2022-08-02T05:00:34;5.32;;;3.97;;
65543;SDS011;52173;45.204;39.240;2022-08-02T05:03:01;7.80;;;4.80;;
65543;SDS011;52173;45.204;39.240;2022-08-02T05:05:27;6.35;;;5.00;;
65543;SDS011;52173;45.204;39.240;2022-08-02T05:07:53;6.43;;;4.47;;
65543;SDS011;52173;45.204;39.240;2022-08-02T05:10:20;7.28;;;4.47;;
65543;SDS011;52173;45.204;39.240;2022-08-02T05:12:47;6.50;;;4.25;;
65543;SDS011;52173;45.204;39.240;2022-08-02T05:15:13;5.82;;;4.00;;
65543;SDS011;52173;45.204;39.240;2022-08-02T05:17:43;6.82;;;4.20;;
65543;SDS011;52173;45.204;39.240;2022-08-02T05:20:11;5.05;;;3.75;;
65543;SDS011;52173;45.204;39.240;2022-08-02T05:22:40;6.82;;;3.60;;
65543;SDS011;52173;45.204;39.240;2022-08-02T05:25:07;6.20;;;3.30;;
65543;SDS011;52173;45.204;39.240;2022-08-02T05:27:34;4.65;;;3.42;;
65543;SDS011;52173;45.204;39.240;2022-08-02T05:30:00;4.95;;;3.30;;
65543;SDS011;52173;45.204;39.240;2022-08-02T05:32:27;5.13;;;3.33;;
65543;SDS011;52173;45.204;39.240;2022-08-02T05:34:53;6.88;;;3.67;;
65543;SDS011;52173;45.204;39.240;2022-08-02T05:37:19;8.48;;;3.47;;
65543;SDS011;52173;45.204;39.240;2022-08-02T05:39:46;4.22;;;3.10;;
65543;SDS011;52173;45.204;39.240;2022-08-02T05:42:12;5.43;;;3.42;;
65543;SDS011;52173;45.204;39.240;2022-08-02T05:44:39;5.75;;;3.30;;
65543;SDS011;52173;45.204;39.240;2022-08-02T05:47:05;5.80;;;3.22;;
65543;SDS011;52173;45.204;39.240;2022-08-02T05:49:32;7.93;;;4.05;;
65543;SDS011;52173;45.204;39.240;2022-08-02T05:51:59;5.95;;;3.22;;
65543;SDS011;52173;45.204;39.240;2022-08-02T05:57:05;6.15;;;3.30;;
65543;SDS011;52173;45.204;39.240;2022-08-02T05:59:51;4.75;;;3.05;;
65543;SDS011;52173;45.204;39.240;2022-08-02T06:05:28;7.40;;;5.57;;
65543;SDS011;52173;45.204;39.240;2022-08-02T06:10:27;5.55;;;2.60;;
65543;SDS011;52173;45.204;39.240;2022-08-02T06:13:04;4.93;;;2.97;;
65543;SDS011;52173;45.204;39.240;2022-08-02T06:15:38;4.70;;;2.60;;
65543;SDS011;52173;45.204;39.240;2022-08-02T06:18:06;4.97;;;2.65;;
65543;SDS011;52173;45.204;39.240;2022-08-02T06:20:33;4.65;;;2.70;;
65543;SDS011;52173;45.204;39.240;2022-08-02T06:23:01;5.20;;;2.55;;
65543;SDS011;52173;45.204;39.240;2022-08-02T06:25:33;4.40;;;2.35;;
65543;SDS011;52173;45.204;39.240;2022-08-02T06:28:03;4.07;;;2.60;;
65543;SDS011;52173;45.204;39.240;2022-08-02T06:30:30;4.80;;;2.33;;
65543;SDS011;52173;45.204;39.240;2022-08-02T06:32:57;3.78;;;2.28;;
65543;SDS011;52173;45.204;39.240;2022-08-02T06:35:25;4.88;;;2.50;;
65543;SDS011;52173;45.204;39.240;2022-08-02T06:37:59;4.28;;;2.30;;
65543;SDS011;52173;45.204;39.240;2022-08-02T06:40:31;8.05;;;3.10;;
65543;SDS011;52173;45.204;39.240;2022-08-02T06:43:11;7.32;;;2.78;;
65543;SDS011;52173;45.204;39.240;2022-08-02T06:45:43;3.80;;;2.60;;
65543;SDS011;52173;45.204;39.240;2022-08-02T06:48:09;4.38;;;2.35;;
65543;SDS011;52173;45.204;39.240;2022-08-02T06:50:36;6.78;;;2.63;;
65543;SDS011;52173;45.204;39.240;2022-08-02T06:53:04;3.92;;;2.47;;
65543;SDS011;52173;45.204;39.240;2022-08-02T06:55:31;4.25;;;2.72;;
65543;SDS011;52173;45.204;39.240;2022-08-02T06:57:57;4.40;;;2.42;;
65543;SDS011;52173;45.204;39.240;2022-08-02T07:00:24;3.42;;;2.20;;
65543;SDS011;52173;45.204;39.240;2022-08-02T07:02:51;6.32;;;2.60;;
65543;SDS011;52173;45.204;39.240;2022-08-02T07:05:18;6.45;;;2.75;;
65543;SDS011;52173;45.204;39.240;2022-08-02T07:07:44;6.20;;;2.78;;
65543;SDS011;52173;45.204;39.240;2022-08-02T07:10:11;5.93;;;2.90;;
65543;SDS011;52173;45.204;39.240;2022-08-02T07:12:39;6.13;;;2.70;;
65543;SDS011;52173;45.204;39.240;2022-08-02T07:15:06;4.10;;;2.80;;
65543;SDS011;52173;45.204;39.240;2022-08-02T07:17:34;7.72;;;2.65;;
65543;SDS011;52173;45.204;39.240;2022-08-02T07:20:01;5.25;;;2.80;;
65543;SDS011;52173;45.204;39.240;2022-08-02T07:22:28;9.02;;;2.83;;
65543;SDS011;52173;45.204;39.240;2022-08-02T07:24:56;5.07;;;2.80;;
65543;SDS011;52173;45.204;39.240;2022-08-02T07:27:24;5.18;;;2.90;;
65543;SDS011;52173;45.204;39.240;2022-08-02T07:29:51;6.80;;;2.88;;
65543;SDS011;52173;45.204;39.240;2022-08-02T07:32:19;7.63;;;2.88;;
65543;SDS011;52173;45.204;39.240;2022-08-02T07:34:47;9.98;;;3.13;;
65543;SDS011;52173;45.204;39.240;2022-08-02T07:37:13;6.47;;;2.97;;
65543;SDS011;52173;45.204;39.240;2022-08-02T07:39:40;5.65;;;2.78;;
65543;SDS011;52173;45.204;39.240;2022-08-02T07:42:06;5.75;;;2.70;;
65543;SDS011;52173;45.204;39.240;2022-08-02T07:44:32;4.20;;;2.70;;
65543;SDS011;52173;45.204;39.240;2022-08-02T07:47:02;4.57;;;2.15;;
65543;SDS011;52173;45.204;39.240;2022-08-02T07:49:29;4.88;;;2.67;;
65543;SDS011;52173;45.204;39.240;2022-08-02T07:51:56;6.20;;;2.63;;
65543;SDS011;52173;45.204;39.240;2022-08-02T07:54:22;6.32;;;3.45;;
65543;SDS011;52173;45.204;39.240;2022-08-02T07:56:49;5.97;;;2.70;;
65543;SDS011;52173;45.204;39.240;2022-08-02T07:59:17;7.20;;;2.63;;
65543;SDS011;52173;45.204;39.240;2022-08-02T08:01:44;5.50;;;2.80;;
65543;SDS011;52173;45.204;39.240;2022-08-02T08:04:10;6.18;;;2.78;;
65543;SDS011;52173;45.204;39.240;2022-08-02T08:06:36;4.88;;;2.92;;
65543;SDS011;52173;45.204;39.240;2022-08-02T08:09:03;5.38;;;2.65;;
65543;SDS011;52173;45.204;39.240;2022-08-02T08:11:29;7.53;;;2.60;;
65543;SDS011;52173;45.204;39.240;2022-08-02T08:13:55;5.78;;;2.53;;
65543;SDS011;52173;45.204;39.240;2022-08-02T08:16:22;4.57;;;2.40;;
65543;SDS011;52173;45.204;39.240;2022-08-02T08:18:51;8.48;;;3.10;;
65543;SDS011;52173;45.204;39.240;2022-08-02T08:21:17;4.45;;;2.80;;
65543;SDS011;52173;45.204;39.240;2022-08-02T08:23:43;5.90;;;2.53;;
65543;SDS011;52173;45.204;39.240;2022-08-02T08:26:10;4.75;;;2.80;;
65543;SDS011;52173;45.204;39.240;2022-08-02T08:28:36;6.05;;;2.40;;
65543;SDS011;52173;45.204;39.240;2022-08-02T08:31:03;4.25;;;2.75;;
65543;SDS011;52173;45.204;39.240;2022-08-02T08:33:29;5.85;;;2.78;;
65543;SDS011;52173;45.204;39.240;2022-08-02T08:35:55;4.75;;;2.80;;
65543;SDS011;52173;45.204;39.240;2022-08-02T08:38:22;7.57;;;3.10;;
65543;SDS011;52173;45.204;39.240;2022-08-02T08:40:49;8.00;;;3.30;;
65543;SDS011;52173;45.204;39.240;2022-08-02T08:43:16;5.90;;;2.90;;
65543;SDS011;52173;45.204;39.240;2022-08-02T08:45:43;6.05;;;2.83;;
65543;SDS011;52173;45.204;39.240;2022-08-02T08:48:14;7.13;;;3.17;;
65543;SDS011;52173;45.204;39.240;2022-08-02T08:51:01;8.25;;;2.70;;
65543;SDS011;52173;45.204;39.240;2022-08-02T08:53:36;4.55;;;2.80;;
65543;SDS011;52173;45.204;39.240;2022-08-02T08:56:06;5.13;;;2.95;;
65543;SDS011;52173;45.204;39.240;2022-08-02T08:58:36;8.18;;;3.00;;
65543;SDS011;52173;45.204;39.240;2022-08-02T09:01:03;4.45;;;2.75;;
65543;SDS011;52173;45.204;39.240;2022-08-02T09:03:30;6.75;;;2.70;;
65543;SDS011;52173;45.204;39.240;2022-08-02T09:05:57;4.07;;;2.65;;
65543;SDS011;52173;45.204;39.240;2022-08-02T09:08:24;6.32;;;2.83;;
65543;SDS011;52173;45.204;39.240;2022-08-02T09:10:50;7.85;;;2.90;;
65543;SDS011;52173;45.204;39.240;2022-08-02T09:16:00;4.70;;;2.53;;
65543;SDS011;52173;45.204;39.240;2022-08-02T09:21:08;6.05;;;2.80;;
65543;SDS011;52173;45.204;39.240;2022-08-02T09:23:36;5.57;;;2.50;;
65543;SDS011;52173;45.204;39.240;2022-08-02T09:26:05;4.65;;;2.47;;
65543;SDS011;52173;45.204;39.240;2022-08-02T09:28:35;4.72;;;2.58;;
65543;SDS011;52173;45.204;39.240;2022-08-02T09:33:34;4.82;;;2.70;;
65543;SDS011;52173;45.204;39.240;2022-08-02T09:38:36;5.07;;;2.80;;
65543;SDS011;52173;45.204;39.240;2022-08-02T09:41:04;12.57;;;3.00;;
65543;SDS011;52173;45.204;39.240;2022-08-02T09:46:18;5.18;;;2.60;;
65543;SDS011;52173;45.204;39.240;2022-08-02T09:48:50;7.78;;;2.67;;
65543;SDS011;52173;45.204;39.240;2022-08-02T09:51:22;6.22;;;2.45;;
65543;SDS011;52173;45.204;39.240;2022-08-02T09:53:52;5.50;;;2.80;;
65543;SDS011;52173;45.204;39.240;2022-08-02T09:56:20;4.13;;;2.30;;
65543;SDS011;52173;45.204;39.240;2022-08-02T09:58:48;4.88;;;2.40;;
65543;SDS011;52173;45.204;39.240;2022-08-02T10:01:18;5.00;;;2.47;;
65543;SDS011;52173;45.204;39.240;2022-08-02T10:06:22;13.00;;;2.60;;
65543;SDS011;52173;45.204;39.240;2022-08-02T10:08:50;6.30;;;2.20;;
65543;SDS011;52173;45.204;39.240;2022-08-02T10:11:21;5.90;;;2.30;;
65543;SDS011;52173;45.204;39.240;2022-08-02T10:13:49;4.82;;;2.10;;
65543;SDS011;52173;45.204;39.240;2022-08-02T10:16:17;4.93;;;2.30;;
65543;SDS011;52173;45.204;39.240;2022-08-02T10:18:54;2.67;;;1.70;;
65543;SDS011;52173;45.204;39.240;2022-08-02T10:22:08;3.40;;;2.00;;
65543;SDS011;52173;45.204;39.240;2022-08-02T10:24:27;3.75;;;2.05;;
65543;SDS011;52173;45.204;39.240;2022-08-02T10:26:55;4.22;;;2.05;;
65543;SDS011;52173;45.204;39.240;2022-08-02T10:29:28;6.60;;;2.25;;
65543;SDS011;52173;45.204;39.240;2022-08-02T10:32:04;9.05;;;1.98;;
65543;SDS011;52173;45.204;39.240;2022-08-02T10:34:33;2.65;;;1.77;;
65543;SDS011;52173;45.204;39.240;2022-08-02T10:37:05;2.58;;;1.45;;
65543;SDS011;52173;45.204;39.240;2022-08-02T10:39:40;6.38;;;2.17;;
65543;SDS011;52173;45.204;39.240;2022-08-02T10:42:08;2.90;;;1.60;;
65543;SDS011;52173;45.204;39.240;2022-08-02T10:44:36;3.08;;;1.67;;
65543;SDS011;52173;45.204;39.240;2022-08-02T10:49:50;3.13;;;1.77;;
65543;SDS011;52173;45.204;39.240;2022-08-02T10:52:30;3.72;;;1.90;;
65543;SDS011;52173;45.204;39.240;2022-08-02T10:55:10;3.35;;;1.52;;
65543;SDS011;52173;45.204;39.240;2022-08-02T10:57:38;2.15;;;1.35;;
65543;SDS011;52173;45.204;39.240;2022-08-02T11:00:12;4.28;;;1.75;;
65543;SDS011;52173;45.204;39.240;2022-08-02T11:02:59;3.33;;;2.20;;
65543;SDS011;52173;45.204;39.240;2022-08-02T11:05:32;3.25;;;2.05;;
65543;SDS011;52173;45.204;39.240;2022-08-02T11:08:00;3.00;;;2.00;;
65543;SDS011;52173;45.204;39.240;2022-08-02T11:10:43;3.60;;;2.08;;
65543;SDS011;52173;45.204;39.240;2022-08-02T11:13:13;3.65;;;2.08;;
65543;SDS011;52173;45.204;39.240;2022-08-02T11:21:21;6.60;;;2.17;;
65543;SDS011;52173;45.204;39.240;2022-08-02T11:23:49;4.07;;;2.03;;
65543;SDS011;52173;45.204;39.240;2022-08-02T11:28:58;2.28;;;1.63;;
65543;SDS011;52173;45.204;39.240;2022-08-02T11:31:27;4.85;;;1.60;;
65543;SDS011;52173;45.204;39.240;2022-08-02T11:33:54;3.40;;;1.83;;
65543;SDS011;52173;45.204;39.240;2022-08-02T11:36:20;5.68;;;1.60;;
65543;SDS011;52173;45.204;39.240;2022-08-02T11:38:47;5.00;;;2.70;;
65543;SDS011;52173;45.204;39.240;2022-08-02T11:41:19;12.52;;;2.03;;
65543;SDS011;52173;45.204;39.240;2022-08-02T11:43:56;3.67;;;1.70;;
65543;SDS011;52173;45.204;39.240;2022-08-02T11:46:22;4.40;;;1.80;;
65543;SDS011;52173;45.204;39.240;2022-08-02T11:48:48;3.42;;;1.45;;
65543;SDS011;52173;45.204;39.240;2022-08-02T11:51:15;2.58;;;1.63;;
65543;SDS011;52173;45.204;39.240;2022-08-02T11:53:47;4.90;;;2.00;;
65543;SDS011;52173;45.204;39.240;2022-08-02T11:56:27;3.80;;;1.80;;
65543;SDS011;52173;45.204;39.240;2022-08-02T11:59:05;5.65;;;1.70;;
65543;SDS011;52173;45.204;39.240;2022-08-02T12:01:34;4.25;;;1.80;;
65543;SDS011;52173;45.204;39.240;2022-08-02T12:04:04;3.63;;;1.85;;
65543;SDS011;52173;45.204;39.240;2022-08-02T12:06:31;2.65;;;1.77;;
65543;SDS011;52173;45.204;39.240;2022-08-02T12:09:10;3.33;;;1.77;;
65543;SDS011;52173;45.204;39.240;2022-08-02T12:11:40;2.15;;;1.42;;
65543;SDS011;52173;45.204;39.240;2022-08-02T12:14:07;7.07;;;2.15;;
65543;SDS011;52173;45.204;39.240;2022-08-02T12:16:36;2.58;;;1.70;;
65543;SDS011;52173;45.204;39.240;2022-08-02T12:19:22;3.88;;;1.83;;
65543;SDS011;52173;45.204;39.240;2022-08-02T12:24:52;3.25;;;1.90;;
65543;SDS011;52173;45.204;39.240;2022-08-02T12:27:53;2.55;;;1.60;;
65543;SDS011;52173;45.204;39.240;2022-08-02T12:30:14;4.82;;;1.50;;
65543;SDS011;52173;45.204;39.240;2022-08-02T12:32:43;3.08;;;1.50;;
65543;SDS011;52173;45.204;39.240;2022-08-02T12:35:16;4.93;;;1.42;;
65543;SDS011;52173;45.204;39.240;2022-08-02T12:37:48;5.00;;;1.88;;
65543;SDS011;52173;45.204;39.240;2022-08-02T12:42:52;5.28;;;1.85;;
65543;SDS011;52173;45.204;39.240;2022-08-02T12:45:24;5.43;;;2.00;;
65543;SDS011;52173;45.204;39.240;2022-08-02T12:48:09;4.07;;;1.60;;
65543;SDS011;52173;45.204;39.240;2022-08-02T12:50:35;2.50;;;1.73;;
65543;SDS011;52173;45.204;39.240;2022-08-02T12:53:03;6.55;;;1.60;;
65543;SDS011;52173;45.204;39.240;2022-08-02T12:55:36;4.03;;;2.00;;
65543;SDS011;52173;45.204;39.240;2022-08-02T12:58:19;5.03;;;1.85;;
65543;SDS011;52173;45.204;39.240;2022-08-02T13:00:52;4.00;;;1.90;;
65543;SDS011;52173;45.204;39.240;2022-08-02T13:03:19;4.57;;;1.70;;
65543;SDS011;52173;45.204;39.240;2022-08-02T13:05:46;4.05;;;1.90;;
65543;SDS011;52173;45.204;39.240;2022-08-02T13:08:12;6.90;;;2.15;;
65543;SDS011;52173;45.204;39.240;2022-08-02T13:10:40;3.55;;;1.88;;
65543;SDS011;52173;45.204;39.240;2022-08-02T13:13:06;3.20;;;1.90;;
65543;SDS011;52173;45.204;39.240;2022-08-02T13:15:32;4.47;;;1.98;;
65543;SDS011;52173;45.204;39.240;2022-08-02T13:17:59;5.75;;;2.30;;
65543;SDS011;52173;45.204;39.240;2022-08-02T13:20:26;3.97;;;1.90;;
65543;SDS011;52173;45.204;39.240;2022-08-02T13:22:53;4.68;;;2.10;;
65543;SDS011;52173;45.204;39.240;2022-08-02T13:25:20;3.63;;;2.03;;
65543;SDS011;52173;45.204;39.240;2022-08-02T13:27:48;9.73;;;2.38;;
65543;SDS011;52173;45.204;39.240;2022-08-02T13:30:15;6.75;;;2.28;;
65543;SDS011;52173;45.204;39.240;2022-08-02T13:32:41;3.25;;;2.05;;
65543;SDS011;52173;45.204;39.240;2022-08-02T13:35:07;4.82;;;2.22;;
65543;SDS011;52173;45.204;39.240;2022-08-02T13:37:34;4.43;;;2.03;;
65543;SDS011;52173;45.204;39.240;2022-08-02T13:40:01;7.75;;;2.40;;
65543;SDS011;52173;45.204;39.240;2022-08-02T13:42:28;7.05;;;3.17;;
65543;SDS011;52173;45.204;39.240;2022-08-02T13:44:55;5.93;;;2.53;;
65543;SDS011;52173;45.204;39.240;2022-08-02T13:47:21;9.75;;;2.35;;
65543;SDS011;52173;45.204;39.240;2022-08-02T13:49:47;6.30;;;3.47;;
65543;SDS011;52173;45.204;39.240;2022-08-02T13:52:15;8.32;;;4.85;;
65543;SDS011;52173;45.204;39.240;2022-08-02T13:54:42;6.78;;;3.28;;
65543;SDS011;52173;45.204;39.240;2022-08-02T13:57:08;6.55;;;3.28;;
65543;SDS011;52173;45.204;39.240;2022-08-02T13:59:35;7.82;;;3.90;;
65543;SDS011;52173;45.204;39.240;2022-08-02T14:02:01;7.38;;;3.47;;
65543;SDS011;52173;45.204;39.240;2022-08-02T14:04:27;9.38;;;3.20;;
65543;SDS011;52173;45.204;39.240;2022-08-02T14:06:56;8.13;;;3.80;;
65543;SDS011;52173;45.204;39.240;2022-08-02T14:09:23;22.38;;;5.07;;
65543;SDS011;52173;45.204;39.240;2022-08-02T14:11:50;11.35;;;4.20;;
65543;SDS011;52173;45.204;39.240;2022-08-02T14:14:16;18.85;;;4.82;;
65543;SDS011;52173;45.204;39.240;2022-08-02T14:16:43;11.30;;;4.82;;
65543;SDS011;52173;45.204;39.240;2022-08-02T14:19:10;15.45;;;4.32;;
65543;SDS011;52173;45.204;39.240;2022-08-02T14:21:37;9.27;;;3.90;;
65543;SDS011;52173;45.204;39.240;2022-08-02T14:24:04;6.80;;;3.40;;
65543;SDS011;52173;45.204;39.240;2022-08-02T14:26:30;6.03;;;3.42;;
65543;SDS011;52173;45.204;39.240;2022-08-02T14:28:57;6.00;;;3.25;;
65543;SDS011;52173;45.204;39.240;2022-08-02T14:31:23;6.60;;;2.78;;
65543;SDS011;52173;45.204;39.240;2022-08-02T14:33:49;4.68;;;2.70;;
65543;SDS011;52173;45.204;39.240;2022-08-02T14:36:15;8.13;;;2.40;;
65543;SDS011;52173;45.204;39.240;2022-08-02T14:38:42;4.00;;;1.88;;
65543;SDS011;52173;45.204;39.240;2022-08-02T14:41:08;3.97;;;1.65;;
65543;SDS011;52173;45.204;39.240;2022-08-02T14:43:35;3.42;;;1.90;;
65543;SDS011;52173;45.204;39.240;2022-08-02T14:46:19;6.35;;;1.95;;
65543;SDS011;52173;45.204;39.240;2022-08-02T14:48:46;3.50;;;2.10;;
65543;SDS011;52173;45.204;39.240;2022-08-02T14:51:12;6.53;;;2.47;;
65543;SDS011;52173;45.204;39.240;2022-08-02T14:53:39;8.73;;;3.15;;
65543;SDS011;52173;45.204;39.240;2022-08-02T14:56:05;9.90;;;3.20;;
65543;SDS011;52173;45.204;39.240;2022-08-02T14:58:31;7.60;;;3.17;;
65543;SDS011;52173;45.204;39.240;2022-08-02T15:00:58;10.43;;;2.90;;
65543;SDS011;52173;45.204;39.240;2022-08-02T15:03:24;6.93;;;3.00;;
65543;SDS011;52173;45.204;39.240;2022-08-02T15:05:50;7.15;;;3.15;;
65543;SDS011;52173;45.204;39.240;2022-08-02T15:08:16;7.00;;;3.28;;
65543;SDS011;52173;45.204;39.240;2022-08-02T15:10:42;6.07;;;2.88;;
65543;SDS011;52173;45.204;39.240;2022-08-02T15:13:10;7.80;;;3.30;;
65543;SDS011;52173;45.204;39.240;2022-08-02T15:15:36;7.15;;;3.20;;
65543;SDS011;52173;45.204;39.240;2022-08-02T15:18:03;7.85;;;3.70;;
65543;SDS011;52173;45.204;39.240;2022-08-02T15:20:29;12.23;;;3.80;;
65543;SDS011;52173;45.204;39.240;2022-08-02T15:22:56;14.88;;;4.50;;
65543;SDS011;52173;45.204;39.240;2022-08-02T15:25:22;10.02;;;5.80;;